Time;durP1;ratioP1;P1;durP2;ratioP2;P2;SDS_P1;SDS_P2;PMS_P1;PMS_P2;Temp;Humidity;BMP_temperature;BMP_pressure;BME280_temperature;BME280_humidity;BME280_pressure;Samples;Min_cycle;Max_cycle;Signal;HPM_P1;HPM_P2
2023/08/29 00:01:24;;;;;;;72.97;56.92;;;;;;;-145.28;nan;120369.34;5002232;28;20290;-86
2023/08/29 00:03:51;;;;;;;0.10;0.10;;;;;;;;;;5010830;28;20124;-85
2023/08/29 00:06:16;;;;;;;20.92;18.15;;;;;;;;;;5008888;28;20061;-86
2023/08/29 00:08:41;;;;;;;0.10;0.10;;;;;;;15.28;nan;99771.50;5007292;28;20051;-86
2023/08/29 00:11:06;;;;;;;0.10;0.10;;;;;;;15.25;nan;99735.44;5018218;28;20038;-86
2023/08/29 00:13:32;;;;;;;0.10;0.10;;;;;;;15.27;nan;99696.09;5018979;28;20792;-86
2023/08/29 00:15:57;;;;;;;0.10;0.10;;;;;;;;;;5010529;28;20033;-86
2023/08/29 00:18:22;;;;;;;0.10;0.10;;;;;;;;;;5012290;28;20496;-86
2023/08/29 00:20:48;;;;;;;0.10;0.10;;;;;;;15.31;nan;99722.34;5012630;28;20737;-87
2023/08/29 00:23:14;;;;;;;0.10;0.10;;;;;;;;;;5009275;28;20039;-85
2023/08/29 00:25:39;;;;;;;0.10;0.10;;;;;;;;;;5007215;28;20627;-86
2023/08/29 00:28:04;;;;;;;0.10;0.10;;;;;;;;;;5013106;28;20064;-86
2023/08/29 00:30:33;;;;;;;0.10;0.10;;;;;;;;;;5005019;28;20049;-86
2023/08/29 00:32:58;;;;;;;0.10;0.10;;;;;;;;;;5012558;28;20038;-86
2023/08/29 00:35:23;;;;;;;0.10;0.10;;;;;;;;;;5004841;28;20030;-86
2023/08/29 00:37:48;;;;;;;0.10;0.10;;;;;;;;;;5004125;28;20034;-86
2023/08/29 00:40:14;;;;;;;0.17;0.17;;;;;;;;;;5006646;28;20093;-85
2023/08/29 00:42:39;;;;;;;0.10;0.10;;;;;;;;;;5000192;28;20053;-86
2023/08/29 00:45:04;;;;;;;0.10;0.10;;;;;;;;;;5003035;28;20034;-86
2023/08/29 00:47:29;;;;;;;0.10;0.10;;;;;;;;;;5006854;28;20056;-86
2023/08/29 00:49:55;;;;;;;0.00;0.00;;;;;;;15.24;nan;99826.19;5011501;28;20050;-85
2023/08/29 00:52:20;;;;;;;0.10;0.10;;;;;;;15.25;nan;99772.75;5012576;28;20044;-86
2023/08/29 00:54:46;;;;;;;0.10;0.10;;;;;;;;;;5003570;28;20044;-86
2023/08/29 00:57:11;;;;;;;0.10;0.10;;;;;;;;;;5004260;28;20255;-86
2023/08/29 00:59:36;;;;;;;0.10;0.10;;;;;;;;;;5003502;28;20058;-86
2023/08/29 01:02:01;;;;;;;0.10;0.10;;;;;;;;;;5006113;28;20041;-86
2023/08/29 01:04:27;;;;;;;0.10;0.10;;;;;;;;;;5014682;28;20042;-86
2023/08/29 01:06:54;;;;;;;0.10;0.10;;;;;;;;;;5011923;28;20068;-85
2023/08/29 01:09:20;;;;;;;0.20;0.20;;;;;;;;;;5012901;28;20045;-86
2023/08/29 01:11:56;;;;;;;0.10;0.10;;;;;;;;;;5008153;28;20042;-85
2023/08/29 01:14:47;;;;;;;0.10;0.10;;;;;;;15.21;nan;99757.34;5001779;28;20292;-85
2023/08/29 01:17:33;;;;;;;0.10;0.10;;;;;;;15.23;nan;99757.94;5004833;28;20049;-86
2023/08/29 01:19:58;;;;;;;0.10;0.10;;;;;;;15.22;nan;99794.44;5010774;28;20034;-86
2023/08/29 01:22:42;;;;;;;0.13;0.13;;;;;;;15.23;nan;99779.25;5010736;28;20037;-85
2023/08/29 01:25:10;;;;;;;0.10;0.10;;;;;;;;;;5010491;28;20180;-86
2023/08/29 01:27:37;;;;;;;0.10;0.10;;;;;;;;;;5003184;28;20042;-85
2023/08/29 01:30:03;;;;;;;0.10;0.10;;;;;;;;;;4998840;28;20030;-85
2023/08/29 01:32:30;;;;;;;0.10;0.10;;;;;;;;;;5008371;28;20049;-86
2023/08/29 01:34:56;;;;;;;0.10;0.10;;;;;;;;;;5010293;28;20042;-86
2023/08/29 01:37:21;;;;;;;0.20;0.20;;;;;;;;;;5013500;28;20034;-86
2023/08/29 01:39:46;;;;;;;0.10;0.10;;;;;;;;;;5005551;28;20030;-86
2023/08/29 01:42:11;;;;;;;0.10;0.10;;;;;;;;;;5013849;28;20124;-86
2023/08/29 01:44:36;;;;;;;0.10;0.10;;;;;;;;;;5005951;28;20040;-86
2023/08/29 01:47:01;;;;;;;0.10;0.10;;;;;;;;;;4996712;28;20377;-86
2023/08/29 01:49:27;;;;;;;0.10;0.10;;;;;;;;;;5000847;28;20129;-86
2023/08/29 01:51:52;;;;;;;0.10;0.10;;;;;;;;;;5009670;28;20437;-86
2023/08/29 01:54:17;;;;;;;0.13;0.13;;;;;;;;;;5011124;28;20065;-86
2023/08/29 01:56:43;;;;;;;0.10;0.10;;;;;;;;;;5006203;28;20317;-86
2023/08/29 01:59:08;;;;;;;0.10;0.10;;;;;;;;;;5008498;28;20069;-86
2023/08/29 02:01:33;;;;;;;0.10;0.10;;;;;;;;;;5012776;28;20034;-85
2023/08/29 02:03:58;;;;;;;0.10;0.10;;;;;;;;;;5008222;28;20512;-86
2023/08/29 02:06:23;;;;;;;0.10;0.10;;;;;;;;;;5004407;28;20088;-85
2023/08/29 02:08:49;;;;;;;0.10;0.10;;;;;;;14.92;nan;99724.72;5002138;28;20286;-86
2023/08/29 02:11:14;;;;;;;0.10;0.10;;;;;;;;;;5012609;28;20442;-85
2023/08/29 02:13:39;;;;;;;0.10;0.10;;;;;;;;;;5010531;28;20068;-85
2023/08/29 02:16:04;;;;;;;0.10;0.10;;;;;;;14.93;nan;99688.25;5000808;28;20129;-85
2023/08/29 02:18:30;;;;;;;0.10;0.10;;;;;;;-145.28;100.00;65941.84;5007835;28;20451;-86
2023/08/29 02:20:55;;;;;;;0.10;0.10;;;;;;;;;;5011195;28;20034;-86
2023/08/29 02:23:20;;;;;;;0.20;0.20;;;;;;;;;;5001140;28;20344;-85
2023/08/29 02:25:45;;;;;;;0.10;0.10;;;;;;;14.82;nan;99793.44;4996062;28;20042;-86
2023/08/29 02:28:11;;;;;;;0.10;0.10;;;;;;;;;;5009495;28;20038;-85
2023/08/29 02:30:36;;;;;;;0.10;0.10;;;;;;;;;;5006591;28;20102;-85
2023/08/29 02:33:01;;;;;;;0.10;0.10;;;;;;;;;;5008559;28;20038;-86
2023/08/29 02:35:26;;;;;;;0.10;0.10;;;;;;;;;;4997871;28;20035;-85
2023/08/29 02:37:51;;;;;;;0.10;0.10;;;;;;;;;;4995914;28;20515;-85
2023/08/29 02:40:17;;;;;;;0.10;0.10;;;;;;;;;;5000284;28;20034;-85
2023/08/29 02:42:43;;;;;;;0.10;0.10;;;;;;;;;;5005808;28;20312;-86
2023/08/29 02:45:08;;;;;;;0.10;0.10;;;;;;;;;;5012362;28;20367;-85
2023/08/29 02:47:34;;;;;;;0.10;0.10;;;;;;;14.78;nan;99686.56;5006764;28;20065;-85
2023/08/29 02:49:59;;;;;;;0.10;0.10;;;;;;;;;;4995437;28;20041;-85
2023/08/29 02:52:24;;;;;;;0.10;0.10;;;;;;;;;;5005505;28;20141;-86
2023/08/29 02:54:50;;;;;;;0.10;0.10;;;;;;;14.82;nan;99735.69;5000868;28;20042;-86
2023/08/29 02:57:15;;;;;;;0.10;0.10;;;;;;;;;;4995365;28;20558;-85
2023/08/29 02:59:40;;;;;;;0.10;0.10;;;;;;;;;;5000755;28;20035;-85
2023/08/29 03:02:05;;;;;;;0.10;0.10;;;;;;;14.81;nan;99719.94;4998996;28;20399;-85
2023/08/29 03:04:31;;;;;;;0.10;0.10;;;;;;;;;;5003086;28;20044;-86
2023/08/29 03:06:56;;;;;;;0.10;0.10;;;;;;;;;;5003196;28;20340;-86
2023/08/29 03:09:21;;;;;;;0.10;0.10;;;;;;;;;;5004026;28;20113;-86
2023/08/29 03:11:46;;;;;;;0.10;0.10;;;;;;;;;;5007121;28;20038;-86
2023/08/29 03:14:11;;;;;;;0.10;0.10;;;;;;;;;;4996748;28;20042;-85
2023/08/29 03:16:37;;;;;;;0.10;0.10;;;;;;;;;;4997140;28;20085;-85
2023/08/29 03:19:02;;;;;;;0.10;0.10;;;;;;;;;;4997648;28;20535;-85
2023/08/29 03:21:28;;;;;;;0.10;0.10;;;;;;;;;;5006165;28;20124;-86
2023/08/29 03:23:53;;;;;;;0.10;0.10;;;;;;;;;;5007433;28;20038;-85
2023/08/29 03:26:18;;;;;;;0.10;0.10;;;;;;;;;;5003586;28;20045;-86
2023/08/29 03:28:45;;;;;;;0.17;0.17;;;;;;;;;;5000579;28;20042;-85
2023/08/29 03:31:11;;;;;;;0.10;0.10;;;;;;;;;;4997864;28;20034;-86
2023/08/29 03:33:37;;;;;;;0.10;0.10;;;;;;;;;;5000661;28;20399;-85
2023/08/29 03:36:03;;;;;;;0.10;0.10;;;;;;;14.83;nan;99827.03;5005083;28;20499;-86
2023/08/29 03:38:28;;;;;;;;;;;;;;;;;;5007104;28;20068;-85
2023/08/29 03:40:56;;;;;;;0.05;0.05;;;;;;;;;;5002142;28;19928;-85
2023/08/29 03:43:22;;;;;;;0.10;0.10;;;;;;;14.81;nan;99744.72;4999852;28;20058;-86
2023/08/29 03:45:53;;;;;;;0.10;0.10;;;;;;;;;;5005580;28;20064;-86
2023/08/29 03:48:19;;;;;;;0.10;0.10;;;;;;;;;;5001753;28;20601;-85
2023/08/29 03:50:44;;;;;;;0.10;0.10;;;;;;;;;;5005379;28;20046;-86
2023/08/29 03:53:09;;;;;;;0.10;0.10;;;;;;;;;;5002535;28;20043;-85
2023/08/29 03:55:34;;;;;;;0.20;0.20;;;;;;;;;;5002696;28;20492;-85
2023/08/29 03:58:00;;;;;;;0.10;0.10;;;;;;;14.70;nan;99742.63;5005345;28;20121;-86
2023/08/29 04:00:28;;;;;;;0.10;0.10;;;;;;;;;;5008207;28;20334;-86
2023/08/29 04:02:53;;;;;;;0.10;0.10;;;;;;;;;;4995591;28;20819;-86
2023/08/29 04:05:18;;;;;;;0.10;0.10;;;;;;;;;;4993091;28;20042;-86
2023/08/29 04:07:44;;;;;;;0.20;0.20;;;;;;;;;;5001066;28;20377;-86
2023/08/29 04:10:10;;;;;;;0.10;0.10;;;;;;;;;;4993021;28;20624;-86
2023/08/29 04:12:35;;;;;;;0.20;0.20;;;;;;;;;;5003320;28;20500;-86
2023/08/29 04:15:00;;;;;;;0.13;0.13;;;;;;;;;;4995488;28;20042;-86
2023/08/29 04:17:26;;;;;;;0.10;0.10;;;;;;;;;;4998686;28;20052;-86
2023/08/29 04:19:51;;;;;;;0.10;0.10;;;;;;;;;;5003417;28;20535;-86
2023/08/29 04:22:16;;;;;;;0.10;0.10;;;;;;;;;;5008160;28;20620;-86
2023/08/29 04:24:41;;;;;;;0.10;0.10;;;;;;;;;;5002744;28;20049;-86
2023/08/29 04:27:06;;;;;;;0.10;0.10;;;;;;;;;;5002438;28;20053;-86
2023/08/29 04:29:32;;;;;;;0.20;0.20;;;;;;;14.60;nan;99695.09;5010432;28;20037;-86
2023/08/29 04:31:57;;;;;;;0.20;0.20;;;;;;;;;;5003914;28;20076;-86
2023/08/29 04:34:23;;;;;;;0.10;0.10;;;;;;;;;;5002374;28;20480;-86
2023/08/29 04:36:48;;;;;;;0.10;0.10;;;;;;;;;;5004776;28;20041;-86
2023/08/29 04:39:13;;;;;;;0.10;0.10;;;;;;;;;;5003629;28;20304;-86
2023/08/29 04:41:38;;;;;;;0.10;0.10;;;;;;;;;;5006487;28;20284;-86
2023/08/29 04:44:04;;;;;;;0.10;0.10;;;;;;;;;;5008969;28;20076;-86
2023/08/29 04:46:29;;;;;;;0.10;0.10;;;;;;;;;;5008108;28;20026;-86
2023/08/29 04:48:54;;;;;;;0.10;0.10;;;;;;;;;;5008830;28;20073;-86
2023/08/29 04:51:20;;;;;;;0.10;0.10;;;;;;;;;;4996937;28;20058;-86
2023/08/29 04:53:46;;;;;;;0.10;0.10;;;;;;;;;;4999414;28;20049;-86
2023/08/29 04:56:13;;;;;;;0.10;0.10;;;;;;;;;;4998601;28;20041;-86
2023/08/29 04:58:38;;;;;;;0.10;0.10;;;;;;;;;;5013433;28;20045;-86
2023/08/29 05:01:03;;;;;;;0.10;0.10;;;;;;;14.84;nan;99704.38;5011648;28;20034;-86
2023/08/29 05:03:29;;;;;;;0.10;0.10;;;;;;;14.89;nan;99666.53;4993501;28;20031;-86
2023/08/29 05:05:54;;;;;;;0.10;0.10;;;;;;;;;;5008893;28;20512;-86
2023/08/29 05:08:19;;;;;;;0.10;0.10;;;;;;;15.00;nan;99651.81;5007432;28;20041;-86
2023/08/29 05:10:45;;;;;;;0.20;0.20;;;;;;;;;;5010097;28;20073;-86
2023/08/29 05:13:10;;;;;;;0.10;0.10;;;;;;;;;;5022169;28;20680;-86
2023/08/29 05:15:35;;;;;;;0.10;0.10;;;;;;;;;;5015164;28;20038;-86
2023/08/29 05:18:00;;;;;;;0.10;0.10;;;;;;;;;;5009867;28;20033;-86
2023/08/29 05:20:25;;;;;;;0.10;0.10;;;;;;;;;;4998700;28;20281;-86
2023/08/29 05:22:51;;;;;;;0.10;0.10;;;;;;;;;;4994938;28;20034;-86
2023/08/29 05:25:16;;;;;;;0.10;0.10;;;;;;;;;;5000085;28;20044;-86
2023/08/29 05:27:41;;;;;;;0.10;0.10;;;;;;;;;;5006169;28;20041;-87
2023/08/29 05:30:07;;;;;;;0.10;0.10;;;;;;;15.50;nan;99668.25;4990862;28;20066;-86
2023/08/29 05:32:33;;;;;;;0.10;0.10;;;;;;;;;;4987150;28;20389;-86
2023/08/29 05:34:58;;;;;;;0.10;0.10;;;;;;;15.65;nan;99751.47;4977472;28;20054;-86
2023/08/29 05:37:23;;;;;;;0.10;0.10;;;;;;;15.70;nan;99742.91;4985118;28;20046;-86
2023/08/29 05:39:49;;;;;;;0.10;0.10;;;;;;;;;;4986278;28;20411;-86
2023/08/29 05:42:14;;;;;;;0.10;0.10;;;;;;;;;;4992513;28;20046;-86
2023/08/29 05:44:39;;;;;;;0.10;0.10;;;;;;;;;;4987527;28;20710;-86
2023/08/29 05:47:04;;;;;;;0.10;0.10;;;;;;;;;;4981617;28;20042;-86
2023/08/29 05:49:29;;;;;;;0.10;0.10;;;;;;;;;;4986379;28;20089;-86
2023/08/29 05:51:55;;;;;;;0.10;0.10;;;;;;;;;;4995046;28;20530;-86
2023/08/29 05:54:20;;;;;;;0.10;0.10;;;;;;;;;;5004389;28;20061;-86
2023/08/29 05:56:45;;;;;;;0.10;0.10;;;;;;;;;;5002987;28;20285;-86
2023/08/29 05:59:10;;;;;;;0.10;0.10;;;;;;;;;;5008523;28;20028;-86
2023/08/29 06:01:35;;;;;;;0.10;0.10;;;;;;;;;;5008135;28;20455;-86
2023/08/29 06:04:04;;;;;;;0.10;0.10;;;;;;;16.06;nan;99656.31;5007314;28;20046;-86
2023/08/29 06:06:29;;;;;;;0.10;0.10;;;;;;;;;;5004292;28;20508;-86
2023/08/29 06:08:55;;;;;;;0.10;0.10;;;;;;;;;;5008948;28;20042;-86
2023/08/29 06:11:20;;;;;;;0.10;0.10;;;;;;;;;;5000142;28;20042;-86
2023/08/29 06:13:45;;;;;;;0.10;0.10;;;;;;;;;;5008847;28;20033;-86
2023/08/29 06:16:10;;;;;;;0.10;0.10;;;;;;;;;;5010036;28;20065;-86
2023/08/29 06:18:35;;;;;;;0.10;0.10;;;;;;;;;;5006299;28;20033;-85
2023/08/29 06:21:02;;;;;;;0.10;0.10;;;;;;;;;;5016114;28;20786;-86
2023/08/29 06:23:28;;;;;;;0.10;0.10;;;;;;;;;;5008353;28;20320;-85
2023/08/29 06:25:54;;;;;;;0.10;0.10;;;;;;;;;;5010271;28;20033;-85
2023/08/29 06:28:19;;;;;;;0.10;0.10;;;;;;;;;;5007839;28;20141;-86
2023/08/29 06:30:44;;;;;;;0.10;0.10;;;;;;;;;;5009536;28;20092;-86
2023/08/29 06:33:09;;;;;;;0.10;0.10;;;;;;;;;;5004204;28;20092;-87
2023/08/29 06:35:36;;;;;;;0.10;0.10;;;;;;;;;;5010997;28;20117;-86
2023/08/29 06:38:02;;;;;;;0.10;0.10;;;;;;;;;;5010253;28;20038;-86
2023/08/29 06:40:27;;;;;;;0.10;0.10;;;;;;;;;;5008994;28;20045;-86
2023/08/29 06:42:52;;;;;;;0.10;0.10;;;;;;;;;;5009899;28;20543;-86
2023/08/29 06:45:17;;;;;;;0.10;0.10;;;;;;;;;;5004380;28;20160;-86
2023/08/29 06:47:42;;;;;;;0.10;0.10;;;;;;;;;;5006492;28;20045;-86
2023/08/29 06:50:08;;;;;;;0.10;0.10;;;;;;;;;;5010614;28;20406;-86
2023/08/29 06:52:33;;;;;;;0.10;0.10;;;;;;;;;;4999308;28;20396;-85
2023/08/29 06:54:59;;;;;;;0.10;0.10;;;;;;;16.87;nan;99711.06;4996312;28;20041;-85
2023/08/29 06:57:24;;;;;;;0.10;0.10;;;;;;;;;;5007145;28;20030;-86
2023/08/29 06:59:49;;;;;;;0.10;0.10;;;;;;;;;;5006612;28;20291;-85
2023/08/29 07:02:14;;;;;;;0.10;0.10;;;;;;;17.15;nan;99724.91;5011199;28;20030;-86
2023/08/29 07:04:39;;;;;;;0.10;0.10;;;;;;;;;;5008690;28;20034;-85
2023/08/29 07:07:05;;;;;;;0.10;0.10;;;;;;;17.31;nan;99760.19;5012219;28;20336;-86
2023/08/29 07:09:30;;;;;;;0.10;0.10;;;;;;;;;;5014131;28;20053;-85
2023/08/29 07:11:56;;;;;;;0.10;0.10;;;;;;;17.43;nan;99737.06;5013752;28;20096;-86
2023/08/29 07:14:22;;;;;;;0.10;0.10;;;;;;;17.50;nan;99742.38;5012081;28;20403;-85
2023/08/29 07:16:47;;;;;;;0.10;0.10;;;;;;;;;;5011735;28;20037;-85
2023/08/29 07:19:12;;;;;;;0.10;0.10;;;;;;;;;;5009881;28;20023;-86
2023/08/29 07:21:38;;;;;;;0.10;0.10;;;;;;;17.74;nan;99738.09;5018751;28;20434;-85
2023/08/29 07:24:04;;;;;;;0.10;0.10;;;;;;;;;;5006604;28;20073;-85
2023/08/29 07:26:29;;;;;;;0.10;0.10;;;;;;;;;;5010570;28;20494;-85
2023/08/29 07:28:55;;;;;;;0.10;0.10;;;;;;;17.76;nan;99758.22;5007220;28;20046;-85
2023/08/29 07:31:20;;;;;;;0.10;0.10;;;;;;;;;;5020218;28;20030;-85
2023/08/29 07:33:45;;;;;;;0.10;0.10;;;;;;;17.86;nan;99826.47;5018913;28;20451;-85
2023/08/29 07:36:10;;;;;;;0.10;0.10;;;;;;;;;;5010204;28;20125;-85
2023/08/29 07:38:35;;;;;;;0.10;0.10;;;;;;;;;;5011821;28;20030;-85
2023/08/29 07:41:01;;;;;;;0.10;0.10;;;;;;;;;;5027108;28;20038;-85
2023/08/29 07:43:26;;;;;;;0.10;0.10;;;;;;;;;;5013217;28;20821;-85
2023/08/29 07:45:53;;;;;;;0.10;0.10;;;;;;;;;;5009780;28;20080;-85
2023/08/29 07:48:18;;;;;;;0.10;0.10;;;;;;;;;;5011210;28;20100;-85
2023/08/29 07:50:44;;;;;;;0.10;0.10;;;;;;;;;;5011760;28;20042;-85
2023/08/29 07:53:09;;;;;;;0.10;0.10;;;;;;;;;;5017911;28;20045;-86
2023/08/29 07:55:34;;;;;;;0.10;0.10;;;;;;;;;;5016360;28;20308;-85
2023/08/29 07:58:01;;;;;;;0.10;0.10;;;;;;;;;;5016321;28;20038;-86
2023/08/29 08:00:29;;;;;;;0.10;0.10;;;;;;;18.28;nan;99829.44;5011276;28;20281;-85
2023/08/29 08:02:59;;;;;;;0.10;0.10;;;;;;;;;;5008344;28;20073;-85
2023/08/29 08:05:24;;;;;;;0.10;0.10;;;;;;;;;;5016250;28;20144;-86
2023/08/29 08:07:50;;;;;;;0.10;0.10;;;;;;;18.16;nan;99826.66;5004998;28;20130;-85
2023/08/29 08:10:17;;;;;;;0.10;0.10;;;;;;;;;;4999614;28;20030;-85
2023/08/29 08:12:43;;;;;;;0.10;0.10;;;;;;;;;;5013055;28;20416;-85
2023/08/29 08:15:08;;;;;;;0.10;0.10;;;;;;;;;;5012045;28;20034;-85
2023/08/29 08:17:34;;;;;;;0.10;0.10;;;;;;;18.68;nan;99782.47;5003715;28;20037;-85
2023/08/29 08:19:59;;;;;;;0.10;0.10;;;;;;;;;;5002865;28;20058;-85
2023/08/29 08:22:25;;;;;;;0.10;0.10;;;;;;;18.68;nan;99782.47;5004011;28;20042;-85
2023/08/29 08:24:50;;;;;;;0.10;0.10;;;;;;;;;;5004412;28;20026;-85
2023/08/29 08:27:16;;;;;;;0.10;0.10;;;;;;;;;;5000496;28;20068;-85
2023/08/29 08:29:42;;;;;;;0.10;0.10;;;;;;;;;;5010175;28;20042;-85
2023/08/29 08:32:07;;;;;;;0.10;0.10;;;;;;;;;;5005870;28;20041;-85
2023/08/29 08:34:32;;;;;;;0.10;0.10;;;;;;;;;;5003530;28;20462;-85
2023/08/29 08:36:57;;;;;;;0.10;0.10;;;;;;;;;;5005401;28;20120;-85
2023/08/29 08:39:23;;;;;;;0.10;0.10;;;;;;;;;;5003794;28;20044;-85
2023/08/29 08:41:48;;;;;;;0.10;0.10;;;;;;;;;;4991458;28;20113;-85
2023/08/29 08:44:17;;;;;;;0.10;0.10;;;;;;;19.15;nan;99798.03;4989557;28;20038;-85
2023/08/29 08:46:43;;;;;;;0.10;0.10;;;;;;;19.13;nan;99797.44;4991454;28;20051;-85
2023/08/29 08:49:10;;;;;;;0.10;0.10;;;;;;;;;;4987618;28;20515;-85
2023/08/29 08:51:36;;;;;;;0.10;0.10;;;;;;;;;;4980165;28;20118;-85
2023/08/29 08:54:01;;;;;;;0.10;0.10;;;;;;;;;;4992238;28;20037;-85
2023/08/29 08:56:27;;;;;;;0.10;0.10;;;;;;;;;;4986321;28;20038;-85
2023/08/29 08:58:52;;;;;;;0.10;0.10;;;;;;;;;;4985610;28;20125;-85
2023/08/29 09:01:17;;;;;;;0.10;0.10;;;;;;;19.28;nan;99792.50;4990957;28;20038;-85
2023/08/29 09:03:43;;;;;;;0.10;0.10;;;;;;;19.21;nan;99802.50;4978723;28;20101;-84
2023/08/29 09:06:09;;;;;;;0.10;0.10;;;;;;;;;;4977048;28;20313;-86
2023/08/29 09:08:34;;;;;;;0.10;0.10;;;;;;;;;;4988535;28;20192;-85
2023/08/29 09:11:01;;;;;;;0.10;0.10;;;;;;;19.16;nan;99813.06;4987968;28;20042;-85
2023/08/29 09:13:27;;;;;;;0.10;0.10;;;;;;;19.40;nan;99805.97;5004502;28;20088;-85
2023/08/29 09:15:53;;;;;;;0.10;0.10;;;;;;;19.71;nan;99845.16;4992034;28;20181;-85
2023/08/29 09:18:26;;;;;;;0.10;0.10;;;;;;;19.73;nan;99810.88;4988033;28;20035;-85
2023/08/29 09:20:54;;;;;;;0.10;0.10;;;;;;;;;;4988241;28;20504;-85
2023/08/29 09:23:24;;;;;;;0.00;0.00;;;;;;;19.90;nan;99810.19;4989109;28;20113;-85
2023/08/29 09:25:58;;;;;;;0.10;0.10;;;;;;;20.25;nan;99833.59;4985604;28;20589;-85
2023/08/29 09:28:28;;;;;;;0.10;0.10;;;;;;;20.38;nan;99828.00;5002772;28;20563;-85
2023/08/29 09:30:54;;;;;;;0.10;0.10;;;;;;;20.61;nan;99837.94;5007920;28;20037;-85
2023/08/29 09:33:21;;;;;;;0.10;0.10;;;;;;;;;;5008299;28;20092;-85
2023/08/29 09:35:46;;;;;;;0.10;0.10;;;;;;;20.63;nan;99878.81;5003519;28;20042;-85
2023/08/29 09:38:12;;;;;;;0.10;0.10;;;;;;;;;;5008531;28;20052;-85
2023/08/29 09:40:50;;;;;;;0.10;0.10;;;;;;;20.97;nan;99836.88;5007688;28;20042;-85
2023/08/29 09:43:17;;;;;;;0.10;0.10;;;;;;;20.98;nan;99846.53;5004153;28;20396;-85
2023/08/29 09:45:42;;;;;;;0.10;0.10;;;;;;;;;;5000151;28;20049;-85
2023/08/29 09:48:08;;;;;;;0.10;0.10;;;;;;;21.33;nan;99887.84;5006527;28;20046;-85
2023/08/29 09:50:35;;;;;;;0.10;0.10;;;;;;;;;;5004439;28;20077;-85
2023/08/29 09:53:01;;;;;;;0.10;0.10;;;;;;;21.90;nan;99893.25;5003631;28;20049;-85
2023/08/29 09:55:33;;;;;;;0.10;0.10;;;;;;;21.78;nan;99807.19;4997793;28;20030;-85
2023/08/29 09:58:00;;;;;;;0.00;0.00;;;;;;;22.05;nan;99834.31;4992026;28;20092;-85
2023/08/29 10:00:26;;;;;;;0.10;0.10;;;;;;;;;;4983773;28;20499;-85
2023/08/29 10:02:56;;;;;;;0.10;0.10;;;;;;;;;;4998657;28;20037;-85
2023/08/29 10:05:23;;;;;;;0.10;0.10;;;;;;;;;;5003692;28;20057;-85
2023/08/29 10:07:51;;;;;;;0.00;0.00;;;;;;;;;;5008341;28;20038;-85
2023/08/29 10:10:17;;;;;;;0.10;0.10;;;;;;;22.15;nan;99819.38;5001033;28;20392;-85
2023/08/29 10:12:43;;;;;;;0.00;0.00;;;;;;;;;;5006002;28;20038;-85
2023/08/29 10:15:09;;;;;;;0.10;0.10;;;;;;;22.17;nan;99844.19;5005346;28;20041;-85
2023/08/29 10:17:36;;;;;;;0.03;0.03;;;;;;;;;;5004581;28;20526;-85
2023/08/29 10:20:08;;;;;;;0.10;0.10;;;;;;;21.90;nan;99834.03;5008704;28;20068;-85
2023/08/29 10:22:36;;;;;;;0.10;0.10;;;;;;;21.94;nan;99812.84;5009120;28;20034;-85
2023/08/29 10:25:02;;;;;;;0.00;0.00;;;;;;;;;;5004325;28;20038;-86
2023/08/29 10:27:28;;;;;;;0.10;0.10;;;;;;;22.21;nan;99807.63;5009869;28;20092;-87
2023/08/29 10:29:53;;;;;;;0.00;0.00;;;;;;;22.43;nan;99832.78;5011322;28;20558;-87
2023/08/29 10:32:19;;;;;;;0.00;0.00;;;;;;;;;;5010924;28;20030;-87
2023/08/29 10:34:44;;;;;;;0.10;0.10;;;;;;;23.31;nan;99827.47;5011281;28;20041;-86
2023/08/29 10:37:17;;;;;;;0.10;0.10;;;;;;;24.11;nan;99808.78;5004353;28;20030;-88
2023/08/29 10:39:43;;;;;;;0.00;0.00;;;;;;;24.19;nan;99839.91;5005232;28;20030;-86
2023/08/29 10:42:08;;;;;;;0.00;0.00;;;;;;;;;;5005822;28;20061;-86
2023/08/29 10:44:40;;;;;;;0.00;0.00;;;;;;;;;;5005511;28;20034;-88
2023/08/29 10:47:30;;;;;;;0.00;0.00;;;;;;;23.38;nan;99832.63;5012883;28;20041;-86
2023/08/29 10:49:58;;;;;;;0.00;0.00;;;;;;;23.37;nan;99797.84;5006530;28;20038;-87
2023/08/29 10:52:23;;;;;;;0.08;0.08;;;;;;;;;;5010718;28;20041;-88
2023/08/29 10:55:01;;;;;;;0.00;0.00;;;;;;;;;;5009942;28;20046;-86
2023/08/29 10:57:27;;;;;;;0.10;0.10;;;;;;;;;;5006551;28;20033;-86
2023/08/29 10:59:53;;;;;;;0.08;0.08;;;;;;;;;;5012249;28;20041;-86
2023/08/29 11:02:29;;;;;;;0.10;0.10;;;;;;;25.44;nan;99835.72;5006884;28;20377;-87
2023/08/29 11:05:03;;;;;;;0.00;0.00;;;;;;;25.81;nan;99834.69;5008731;28;20030;-87
2023/08/29 11:07:28;;;;;;;0.00;0.00;;;;;;;26.51;nan;99913.59;5011470;28;20030;-88
2023/08/29 11:10:13;;;;;;;0.00;0.00;;;;;;;27.47;nan;99816.69;5011423;28;20041;-85
2023/08/29 11:12:57;;;;;;;;;;;;;;;27.93;nan;99818.31;5009946;28;20050;-86
2023/08/29 11:15:22;;;;;;;;;;;;;;;29.02;nan;99833.25;5005182;28;19920;-87
2023/08/29 11:18:07;;;;;;;;;;;;;;;29.51;nan;99828.53;5010555;28;19913;-86
2023/08/29 11:20:33;;;;;;;;;;;;;;;30.43;nan;99844.25;5011621;28;19917;-87
2023/08/29 11:22:58;;;;;;;;;;;;;;;31.32;nan;99836.75;5010737;28;19913;-86
2023/08/29 11:25:24;;;;;;;;;;;;;;;32.46;nan;99838.41;5011595;28;20375;-84
2023/08/29 11:27:49;;;;;;;;;;;;;;;33.32;nan;99828.88;4995082;28;19964;-84
2023/08/29 11:30:14;;;;;;;;;;;;;;;32.54;nan;99826.72;5008240;28;19933;-86
2023/08/29 11:32:39;;;;;;;;;;;;;;;30.60;nan;99819.09;5004525;28;20009;-85
2023/08/29 11:35:04;;;;;;;;;;;;;;;28.28;nan;99800.06;5006934;28;19930;-85
2023/08/29 11:37:30;;;;;;;;;;;;;;;27.13;nan;99804.94;5012202;28;19917;-85
2023/08/29 11:39:56;;;;;;;;;;;;;;;26.32;nan;99801.41;5008339;28;19928;-85
2023/08/29 11:42:21;;;;;;;;;;;;;;;25.52;nan;99783.75;5014689;28;19932;-84
2023/08/29 11:44:47;;;;;;;;;;;;;;;25.10;nan;99787.44;5009921;28;19920;-88
2023/08/29 11:47:14;;;;;;;;;;;;;;;24.50;nan;99788.78;5008916;28;19933;-86
2023/08/29 11:49:40;;;;;;;;;;;;;;;;;;5009695;28;19933;-85
2023/08/29 11:52:05;;;;;;;;;;;;;;;23.90;nan;99786.19;5009421;28;20028;-85
2023/08/29 11:54:46;;;;;;;;;;;;;;;23.48;nan;99772.59;5004886;28;19913;-85
2023/08/29 11:57:12;;;;;;;;;;;;;;;23.00;nan;99780.47;5011443;28;19932;-85
2023/08/29 11:59:40;;;;;;;;;;;;;;;22.55;nan;99778.78;5013545;28;19917;-84
2023/08/29 12:02:06;;;;;;;;;;;;;;;21.94;nan;99792.13;5002976;28;19917;-85
2023/08/29 12:04:32;;;;;;;0.10;0.10;;;;;;;21.39;nan;99747.88;4999976;28;19917;-88
2023/08/29 12:07:07;;;;;;;0.10;0.10;;;;;;;;;;5007673;28;20034;-86
2023/08/29 12:09:33;;;;;;;0.10;0.10;;;;;;;19.88;nan;99758.66;5000787;28;20046;-87
2023/08/29 12:11:58;;;;;;;0.10;0.10;;;;;;;19.48;nan;99748.50;5000364;28;20045;-85
2023/08/29 12:14:24;;;;;;;0.10;0.10;;;;;;;19.12;nan;99744.91;5003259;28;20030;-88
2023/08/29 12:16:55;;;;;;;0.10;0.10;;;;;;;18.95;nan;99743.88;5018361;28;20037;-87
2023/08/29 12:19:20;;;;;;;0.10;0.10;;;;;;;;;;5013135;28;20097;-85
2023/08/29 12:21:54;;;;;;;0.10;0.10;;;;;;;18.82;nan;99734.97;5009968;28;20041;-87
2023/08/29 12:24:22;;;;;;;0.10;0.10;;;;;;;18.64;nan;99850.94;5008406;28;20125;-87
2023/08/29 12:26:51;;;;;;;0.10;0.10;;;;;;;;;;5009364;28;20112;-86
2023/08/29 12:29:16;;;;;;;0.10;0.10;;;;;;;;;;5012242;28;20053;-87
2023/08/29 12:31:42;;;;;;;0.10;0.10;;;;;;;18.31;nan;99759.44;5000491;28;20034;-86
2023/08/29 12:34:07;;;;;;;0.10;0.10;;;;;;;;;;5004981;28;20070;-87
2023/08/29 12:36:32;;;;;;;0.10;0.10;;;;;;;;;;5011118;28;20059;-87
2023/08/29 12:38:57;;;;;;;0.10;0.10;;;;;;;18.52;nan;99809.03;5003401;28;20042;-86
2023/08/29 12:41:23;;;;;;;0.10;0.10;;;;;;;18.49;nan;99766.63;5001830;28;20121;-86
2023/08/29 12:43:49;;;;;;;0.10;0.10;;;;;;;18.41;nan;99744.47;5007899;28;20590;-88
2023/08/29 12:46:14;;;;;;;0.10;0.10;;;;;;;18.35;nan;99804.25;5013166;28;20030;-88
2023/08/29 12:48:39;;;;;;;0.10;0.10;;;;;;;;;;5010054;28;20048;-87
2023/08/29 12:51:05;;;;;;;0.10;0.10;;;;;;;;;;5023150;28;20038;-85
2023/08/29 12:53:30;;;;;;;0.10;0.10;;;;;;;;;;5012851;28;20090;-86
2023/08/29 12:55:55;;;;;;;0.10;0.10;;;;;;;;;;5019811;28;20093;-85
2023/08/29 12:58:20;;;;;;;0.10;0.10;;;;;;;;;;5007084;28;20132;-88
2023/08/29 13:00:46;;;;;;;0.10;0.10;;;;;;;;;;5004340;28;20038;-87
2023/08/29 13:03:11;;;;;;;0.10;0.10;;;;;;;-145.28;100.00;87211.78;5008240;28;20088;-88
2023/08/29 13:05:37;;;;;;;0.10;0.10;;;;;;;;;;5008003;28;20034;-87
2023/08/29 13:08:03;;;;;;;0.10;0.10;;;;;;;19.55;nan;99743.88;5011036;28;20072;-84
2023/08/29 13:10:29;;;;;;;0.10;0.10;;;;;;;;;;5018403;28;20269;-85
2023/08/29 13:12:54;;;;;;;0.00;0.00;;;;;;;;;;5011352;28;20427;-85
2023/08/29 13:15:19;;;;;;;0.10;0.10;;;;;;;;;;5011627;28;20411;-88
2023/08/29 13:17:45;;;;;;;0.10;0.10;;;;;;;19.75;nan;99844.69;5009066;28;20046;-85
2023/08/29 13:20:12;;;;;;;0.10;0.10;;;;;;;19.81;nan;99757.94;5013999;28;20443;-85
2023/08/29 13:22:38;;;;;;;0.10;0.10;;;;;;;19.87;nan;99800.75;5015167;28;20317;-88
2023/08/29 13:25:05;;;;;;;0.10;0.10;;;;;;;19.93;nan;99754.22;5015614;28;20037;-84
2023/08/29 13:27:31;;;;;;;0.10;0.10;;;;;;;;;;5011461;28;20030;-85
2023/08/29 13:29:56;;;;;;;0.10;0.10;;;;;;;19.97;nan;99767.16;5013368;28;20468;-86
2023/08/29 13:32:22;;;;;;;0.10;0.10;;;;;;;;;;5011215;28;20053;-85
2023/08/29 13:34:47;;;;;;;0.00;0.00;;;;;;;;;;5013422;28;20125;-85
2023/08/29 13:37:12;;;;;;;0.10;0.10;;;;;;;;;;5009362;28;20626;-85